メインページ
METAR-TAF:

METAR-TAF

空港 :

ベリーズシティ, ベリーズ

フィリップス・S・W・ゴールドソン国際空港

緯度: 17-32N, 経度: 088-18W, 海抜: 5m

現時点の気象観測

当レポートは9時間40分前の01:00(UTC)に作成
無風
気温 24°C
湿度 83%
気圧 1012 hPa
視程10km以上
高度2300ftの雲はほとんどない

METAR: MZBZ 190100Z 00000KT 9999 FEW023 24/21 A2990 Q1012 NOSIG

時間: 04:40 (10:40 UTC)

予報

当レポートは7時間40分前の03:00(UTC)に作成
予報は19日の 06時(UTC)から 20日の 06時(UTC)まで有効
北西の風 5kt
視程10km以上
高度2000ftの雲は散在している
高度4000ftの雲は散在している
確率 30% :
19日の 09時(UTC)から 19日の 18時(UTC)まで一時的に
視程: 4000m
高度1500ftの千切れ雲あり
高度4000ftの千切れ雲あり
にわか雨
19日の 19時(UTC)から 19日の 21時(UTC)まで徐々に
北東の風 10kt

TAF: MZBZ 190300Z 1906/2006 32005KT 9999 SCT020 SCT040 PROB30 TEMPO 1909/1918 4000 SHRA BKN015 BKN040 BECMG 1919/1921 04010KT

4,000以上の空港の気象観測と天気予報(METAR報とTAF報)

利用可能な観測所は地図上に黄色い丸と赤い丸で示す。

丸の上にカーソルを重ねると観測所名を参照できる。

次にクリックすると気象観測と天気予報を参照できる。

マップの切り替え:黒色「×」印の緑ボタンをクリックして拡大、「-」印の緑ボタンをクリックして縮小、緑色の三角印をクリックして隣りの地図に切り替え


METAR-TAF: